Etusivu
METAR-TAF:

METAR-TAF

Lentoasemat :

Yamagata, Japani

Leveyspiiri: 38-25N, Pituuspiiri: 140-22E, korkeus merenpinnasta: 105 m

Tämänhetkinen sää

Tämä raportti tehtiin 42 minuuttia sitten, kello 00.00 UTC
Tuuli 8 kn idästä/koillisesta
Lämpötila 8°C
Kosteus 81%
Ilmanpaine 1007 hPa
Näkyvyys 10 km tai enemmän
Muutamia pilviä 500 ft:n korkeudessa
Hajanaisia pilviä 1500 ft:n korkeudessa
Hajonneita pilviä 3500 ft:n korkeudessa
heikkoa sadetta

METAR: RJSC 260000Z 07008KT 9999 -RA FEW005 SCT015 BKN035 08/05 Q1007

Aika: 09:42 (00:42 UTC)


TAF: puuttuu

Säähavainnot ja -ennusteet yli 4000 lentoasemalta (METAR- ja TAF-raportit).

Käytössä olevat sääasemat on merkitty karttaan keltaisilla ja punaisilla pisteillä.

Aseta hiiri pisteen päälle nähdäksesi sääaseman nimen.

Klikkaa sitten nähdäksesi säähavainnot ja -ennusteet.

Kartan vaihtaminen: klikkaa mustalla rastilla varustettuja vihreitä pisteitä, niin voit zoomata sisään; viivalla varustettua vihreää pistettä, niin voit zoomata ulos tai vihreitä nuolia, niin pääset viereisille kartoille.


METAR-TAF: